createdAt,value
2019-05-25T00:00:16.903Z,17.50
2019-05-25T00:02:45.985Z,17.60
2019-05-25T00:05:14.878Z,17.90
2019-05-25T00:07:43.614Z,18.00
2019-05-25T00:10:13.087Z,18.00
2019-05-25T00:12:41.854Z,17.90
2019-05-25T00:15:11.170Z,17.90
2019-05-25T00:17:40.011Z,17.90
2019-05-25T00:20:09.354Z,17.70
2019-05-25T00:22:40.246Z,17.50
2019-05-25T00:25:09.003Z,17.40
2019-05-25T00:27:37.734Z,17.30
2019-05-25T00:30:07.543Z,17.20
2019-05-25T00:32:36.426Z,17.30
2019-05-25T00:35:05.749Z,17.30
2019-05-25T00:37:34.478Z,17.30
2019-05-25T00:40:03.417Z,17.40
2019-05-25T00:42:32.150Z,17.50
2019-05-25T00:45:01.117Z,17.40
2019-05-25T00:47:29.854Z,17.20
2019-05-25T00:49:58.707Z,17.10
2019-05-25T00:52:27.878Z,17.00
2019-05-25T00:54:57.464Z,17.10
2019-05-25T00:57:26.468Z,17.10
2019-05-25T00:59:55.320Z,16.80
2019-05-25T01:02:24.346Z,16.90
2019-05-25T01:04:53.081Z,16.80
2019-05-25T01:07:21.826Z,16.80
2019-05-25T01:09:50.642Z,16.70
2019-05-25T01:12:20.135Z,16.60
2019-05-25T01:14:49.564Z,16.50
2019-05-25T01:17:18.358Z,16.50
2019-05-25T01:19:47.477Z,16.60
2019-05-25T01:22:16.332Z,16.60
2019-05-25T01:24:45.737Z,16.60
2019-05-25T01:27:14.581Z,16.60
2019-05-25T01:29:43.629Z,16.70
2019-05-25T01:32:12.397Z,16.70
2019-05-25T01:34:41.113Z,16.60
2019-05-25T01:37:09.850Z,16.40
2019-05-25T01:39:38.583Z,16.40
2019-05-25T01:42:07.414Z,16.30
2019-05-25T01:44:36.452Z,16.30
2019-05-25T01:47:05.434Z,16.10
2019-05-25T01:49:34.269Z,16.00
2019-05-25T01:52:03.506Z,16.10
2019-05-25T01:54:32.286Z,16.20
2019-05-25T01:57:01.140Z,16.10
2019-05-25T01:59:29.973Z,16.10
2019-05-25T02:01:58.716Z,16.20
2019-05-25T02:04:27.520Z,16.20
2019-05-25T02:06:56.295Z,16.20
2019-05-25T02:09:25.043Z,16.30
2019-05-25T02:11:53.851Z,16.30
2019-05-25T02:14:22.600Z,16.30
2019-05-25T02:16:51.343Z,16.30
2019-05-25T02:19:20.213Z,16.10
2019-05-25T02:21:49.290Z,16.00
2019-05-25T02:24:18.011Z,15.90
2019-05-25T02:26:46.804Z,15.90
2019-05-25T02:29:15.885Z,15.80
2019-05-25T02:31:44.989Z,15.70
2019-05-25T02:34:13.733Z,15.70
2019-05-25T02:36:42.707Z,15.70
2019-05-25T02:39:11.592Z,15.90
2019-05-25T02:41:40.644Z,15.90
2019-05-25T02:44:09.555Z,15.90
2019-05-25T02:46:38.664Z,16.00
2019-05-25T02:49:07.452Z,16.00
2019-05-25T02:51:36.551Z,16.10
2019-05-25T02:54:05.455Z,16.00
2019-05-25T02:56:34.195Z,15.90
2019-05-25T02:59:02.924Z,15.90
2019-05-25T03:01:31.742Z,16.00
2019-05-25T03:04:01.507Z,16.00
2019-05-25T03:06:30.804Z,15.90
2019-05-25T03:09:00.431Z,15.90
2019-05-25T03:11:29.505Z,15.70
2019-05-25T03:13:59.300Z,15.70
2019-05-25T03:16:28.181Z,15.70
2019-05-25T03:18:57.566Z,15.60
2019-05-25T03:21:26.294Z,15.50
2019-05-25T03:23:55.059Z,15.60
2019-05-25T03:26:24.769Z,15.50
2019-05-25T03:28:53.861Z,15.40
2019-05-25T03:31:22.577Z,15.50
2019-05-25T03:33:51.391Z,15.60
2019-05-25T03:36:20.454Z,15.60
2019-05-25T03:38:49.316Z,15.60
2019-05-25T03:41:18.178Z,15.60
2019-05-25T03:43:46.950Z,15.40
2019-05-25T03:46:15.672Z,15.30
2019-05-25T03:48:44.713Z,15.50
2019-05-25T03:51:13.735Z,15.70
2019-05-25T03:53:42.798Z,15.60
2019-05-25T03:56:11.526Z,15.60
2019-05-25T03:58:40.282Z,15.70
2019-05-25T04:01:10.105Z,15.40
2019-05-25T04:03:39.105Z,15.40
2019-05-25T04:06:07.848Z,15.40
2019-05-25T04:08:36.621Z,15.50
2019-05-25T04:11:05.566Z,15.50
2019-05-25T04:13:34.348Z,15.60
2019-05-25T04:16:03.347Z,15.70
2019-05-25T04:18:32.153Z,15.60
2019-05-25T04:21:00.990Z,15.40
2019-05-25T04:23:29.754Z,15.30
2019-05-25T04:25:58.463Z,15.30
2019-05-25T04:28:27.536Z,15.30
2019-05-25T04:30:56.251Z,15.30
2019-05-25T04:33:25.376Z,15.30
2019-05-25T04:35:54.173Z,15.10
2019-05-25T04:38:22.975Z,15.30
2019-05-25T04:40:52.442Z,15.10
2019-05-25T04:43:21.237Z,15.30
2019-05-25T04:45:49.954Z,15.50
2019-05-25T04:48:18.723Z,15.30
2019-05-25T04:50:47.453Z,15.40
2019-05-25T04:53:16.194Z,15.40
2019-05-25T04:55:45.270Z,15.20
2019-05-25T04:58:14.024Z,15.30
2019-05-25T05:00:43.163Z,15.30
2019-05-25T05:03:11.985Z,15.00
2019-05-25T05:05:41.075Z,15.00
2019-05-25T05:08:09.843Z,14.90
2019-05-25T05:10:38.554Z,15.00
2019-05-25T05:13:07.310Z,14.90
2019-05-25T05:15:36.171Z,15.00
2019-05-25T05:18:05.005Z,15.10
2019-05-25T05:20:34.021Z,15.10
2019-05-25T05:23:03.673Z,15.20
2019-05-25T05:25:32.467Z,15.00
2019-05-25T05:28:01.527Z,15.10
2019-05-25T05:30:33.848Z,15.00
2019-05-25T05:33:02.834Z,15.20
2019-05-25T05:35:34.057Z,15.00
2019-05-25T05:38:06.658Z,15.00
2019-05-25T05:40:37.357Z,15.10
2019-05-25T05:43:11.758Z,15.00
2019-05-25T05:45:43.122Z,15.20
2019-05-25T05:48:13.576Z,14.60
2019-05-25T05:50:42.552Z,14.80
2019-05-25T05:53:11.314Z,14.80
2019-05-25T05:55:40.266Z,15.10
2019-05-25T05:58:09.011Z,15.40
2019-05-25T06:00:38.050Z,15.50
2019-05-25T06:03:06.888Z,15.40
2019-05-25T06:05:35.668Z,15.40
2019-05-25T06:08:04.579Z,15.50
2019-05-25T06:10:33.388Z,15.20
2019-05-25T06:13:02.426Z,15.00
2019-05-25T06:15:31.256Z,15.60
2019-05-25T06:18:00.058Z,15.50
2019-05-25T06:20:28.806Z,15.40
2019-05-25T06:22:57.618Z,15.50
2019-05-25T06:25:26.661Z,15.80
2019-05-25T06:27:55.474Z,15.80
2019-05-25T06:30:24.503Z,15.90
2019-05-25T06:32:53.293Z,15.90
2019-05-25T06:35:22.045Z,16.00
2019-05-25T06:37:50.792Z,15.90
2019-05-25T06:40:19.915Z,15.90
2019-05-25T06:42:50.163Z,15.40
2019-05-25T06:45:19.098Z,15.30
2019-05-25T06:47:48.156Z,15.50
2019-05-25T06:50:26.830Z,15.10
2019-05-25T06:52:58.078Z,15.20
2019-05-25T06:55:26.819Z,15.70
2019-05-25T06:57:55.582Z,15.60
2019-05-25T07:00:24.690Z,15.60
2019-05-25T07:02:53.560Z,15.10
2019-05-25T07:05:22.405Z,15.30
2019-05-25T07:07:54.365Z,15.30
2019-05-25T07:10:24.540Z,15.50
2019-05-25T07:12:53.680Z,15.30
2019-05-25T07:15:22.503Z,14.90
2019-05-25T07:17:51.326Z,15.50
2019-05-25T07:20:20.310Z,15.20
2019-05-25T07:22:49.037Z,15.50
2019-05-25T07:25:20.169Z,15.70
2019-05-25T07:27:58.648Z,15.50
2019-05-25T07:30:19.423Z,15.50
2019-05-25T07:32:48.325Z,15.50
2019-05-25T07:35:17.431Z,15.60
2019-05-25T07:37:46.356Z,16.00
2019-05-25T07:40:15.508Z,16.10
2019-05-25T07:42:44.606Z,15.70
2019-05-25T07:45:13.455Z,16.00
2019-05-25T07:47:42.282Z,16.00
2019-05-25T07:50:11.558Z,15.80
2019-05-25T07:52:40.791Z,16.10
2019-05-25T07:55:09.950Z,16.30
2019-05-25T07:57:39.058Z,16.20
2019-05-25T08:00:08.754Z,16.30
2019-05-25T08:02:37.598Z,16.50
2019-05-25T08:05:07.327Z,16.40
2019-05-25T08:07:36.797Z,16.00
2019-05-25T08:10:06.967Z,16.00
2019-05-25T08:12:35.766Z,16.50
2019-05-25T08:15:05.851Z,16.50
2019-05-25T08:17:34.640Z,16.60
2019-05-25T08:20:03.663Z,16.90
2019-05-25T08:22:32.447Z,16.70
2019-05-25T08:25:01.263Z,16.70
2019-05-25T08:27:30.035Z,16.90
2019-05-25T08:29:59.056Z,16.70
2019-05-25T08:32:27.883Z,16.70
2019-05-25T08:34:56.643Z,16.60
2019-05-25T08:37:25.538Z,16.70
2019-05-25T08:39:54.285Z,16.60
2019-05-25T08:42:23.091Z,17.00
2019-05-25T08:44:51.914Z,17.50
2019-05-25T08:47:21.041Z,17.80
2019-05-25T08:49:49.782Z,18.00
2019-05-25T08:52:18.941Z,18.30
2019-05-25T08:54:47.714Z,18.40
2019-05-25T08:57:18.646Z,18.40
2019-05-25T08:59:47.663Z,17.90
2019-05-25T09:02:16.819Z,17.70
2019-05-25T09:04:45.561Z,17.70
2019-05-25T09:07:14.622Z,18.10
2019-05-25T09:09:43.946Z,18.20
2019-05-25T09:12:12.721Z,18.40
2019-05-25T09:14:41.446Z,18.70
2019-05-25T09:17:10.215Z,19.00
2019-05-25T09:19:39.238Z,18.70
2019-05-25T09:22:08.222Z,18.90
2019-05-25T09:24:37.298Z,18.70
2019-05-25T09:27:06.150Z,18.40
2019-05-25T09:29:34.889Z,18.60
2019-05-25T09:32:06.859Z,18.80
2019-05-25T09:34:35.785Z,18.90
2019-05-25T09:37:04.921Z,18.80
2019-05-25T09:39:34.034Z,18.20
2019-05-25T09:42:04.170Z,18.10
2019-05-25T09:44:32.976Z,18.10
2019-05-25T09:47:01.841Z,18.30
2019-05-25T09:49:31.002Z,17.80
2019-05-25T09:51:59.868Z,18.00
2019-05-25T09:54:28.586Z,18.20
2019-05-25T09:56:57.618Z,18.70
2019-05-25T09:59:26.401Z,18.90
2019-05-25T10:01:55.133Z,18.90
2019-05-25T10:04:24.261Z,18.50
2019-05-25T10:06:53.041Z,18.80
2019-05-25T10:09:21.879Z,19.40
2019-05-25T10:11:50.675Z,19.40
2019-05-25T10:14:20.248Z,19.80
2019-05-25T10:16:49.311Z,19.60
2019-05-25T10:19:18.354Z,19.90
2019-05-25T10:21:47.090Z,20.00
2019-05-25T10:24:15.895Z,18.70
2019-05-25T10:26:44.607Z,19.40
2019-05-25T10:29:13.600Z,19.70
2019-05-25T10:31:42.339Z,19.80
2019-05-25T10:34:11.557Z,19.60
2019-05-25T10:36:40.317Z,19.70
2019-05-25T10:39:09.311Z,18.90
2019-05-25T10:41:38.038Z,19.10
2019-05-25T10:44:06.860Z,19.20
2019-05-25T10:46:36.681Z,19.10
2019-05-25T10:49:05.445Z,19.00
2019-05-25T10:51:34.170Z,19.10
2019-05-25T10:54:02.890Z,19.20
2019-05-25T10:56:31.622Z,19.60
2019-05-25T10:59:00.346Z,19.60
2019-05-25T11:01:29.391Z,19.00
2019-05-25T11:03:58.145Z,19.20
2019-05-25T11:06:27.099Z,19.10
2019-05-25T11:08:55.939Z,19.30
2019-05-25T11:11:24.889Z,19.20
2019-05-25T11:13:53.620Z,19.40
2019-05-25T11:16:22.345Z,19.80
2019-05-25T11:18:51.194Z,19.90
2019-05-25T11:21:19.924Z,20.10
2019-05-25T11:23:48.669Z,20.20
2019-05-25T11:26:17.433Z,20.50
2019-05-25T11:28:46.159Z,20.80
2019-05-25T11:31:14.884Z,20.40
2019-05-25T11:33:43.645Z,20.40
2019-05-25T11:36:12.904Z,19.80
2019-05-25T11:38:41.641Z,20.10
2019-05-25T11:41:10.449Z,20.10
2019-05-25T11:43:39.481Z,20.30
2019-05-25T11:46:08.294Z,19.70
2019-05-25T11:48:37.031Z,19.80
2019-05-25T11:51:06.166Z,20.20
2019-05-25T11:53:34.899Z,20.00
2019-05-25T11:56:03.915Z,20.00
2019-05-25T11:58:46.657Z,19.90
2019-05-25T12:01:03.864Z,19.40
2019-05-25T12:03:32.582Z,19.90
2019-05-25T12:06:01.378Z,20.20
2019-05-25T12:08:30.106Z,20.40
2019-05-25T12:10:59.167Z,20.40
2019-05-25T12:13:27.937Z,20.20
2019-05-25T12:15:57.068Z,20.30
2019-05-25T12:18:25.798Z,20.60
2019-05-25T12:20:54.555Z,20.20
2019-05-25T12:23:23.330Z,20.20
2019-05-25T12:25:52.083Z,20.10
2019-05-25T12:28:20.796Z,19.60
2019-05-25T12:30:49.623Z,20.00
2019-05-25T12:33:18.465Z,20.00
2019-05-25T12:35:47.225Z,20.00
2019-05-25T12:38:16.356Z,20.20
2019-05-25T12:40:53.552Z,19.80
2019-05-25T12:43:16.506Z,20.00
2019-05-25T12:45:45.483Z,20.00
2019-05-25T12:48:14.461Z,20.00
2019-05-25T12:50:43.417Z,20.10
2019-05-25T12:53:12.211Z,20.30
2019-05-25T12:55:40.971Z,20.60
2019-05-25T12:58:10.052Z,20.90
2019-05-25T13:00:38.801Z,20.90
2019-05-25T13:03:10.904Z,20.70
2019-05-25T13:05:38.362Z,20.30
2019-05-25T13:08:07.161Z,20.30
2019-05-25T13:10:36.265Z,20.10
2019-05-25T13:13:05.039Z,20.30
2019-05-25T13:15:33.847Z,20.40
2019-05-25T13:18:02.572Z,20.00
2019-05-25T13:20:31.337Z,20.60
2019-05-25T13:23:00.172Z,20.90
2019-05-25T13:25:28.907Z,20.90
2019-05-25T13:27:57.639Z,21.00
2019-05-25T13:30:26.360Z,20.80
2019-05-25T13:32:55.181Z,20.80
2019-05-25T13:35:23.912Z,21.00
2019-05-25T13:37:53.696Z,21.00
2019-05-25T13:40:22.461Z,21.00
2019-05-25T13:42:51.484Z,21.20
2019-05-25T13:45:20.220Z,21.10
2019-05-25T13:47:48.987Z,20.80
2019-05-25T13:50:18.711Z,20.70
2019-05-25T13:52:47.483Z,20.70
2019-05-25T13:55:16.393Z,20.00
2019-05-25T13:57:45.138Z,20.00
2019-05-25T14:00:14.483Z,20.10
2019-05-25T14:02:43.242Z,20.00
2019-05-25T14:05:12.398Z,20.10
2019-05-25T14:07:41.150Z,20.10
2019-05-25T14:10:10.536Z,19.80
2019-05-25T14:12:40.909Z,20.10
2019-05-25T14:15:10.539Z,20.50
2019-05-25T14:17:39.768Z,20.60
2019-05-25T14:20:09.970Z,20.60
2019-05-25T14:22:39.739Z,20.60
2019-05-25T14:25:09.187Z,20.60
2019-05-25T14:27:39.270Z,21.00
2019-05-25T14:30:09.092Z,20.90
2019-05-25T14:32:38.257Z,20.10
2019-05-25T14:35:07.938Z,20.20
2019-05-25T14:37:37.197Z,20.50
2019-05-25T14:40:06.940Z,20.00
2019-05-25T14:42:35.720Z,20.20
2019-05-25T14:45:04.870Z,20.70
2019-05-25T14:47:33.751Z,20.30
2019-05-25T14:50:02.555Z,20.60
2019-05-25T14:52:31.577Z,20.90
2019-05-25T14:55:00.298Z,21.10
2019-05-25T14:57:29.115Z,20.90
2019-05-25T14:59:58.137Z,20.90
2019-05-25T15:02:26.996Z,21.20
2019-05-25T15:04:55.762Z,21.50
2019-05-25T15:07:24.523Z,21.80
2019-05-25T15:09:53.258Z,22.10
2019-05-25T15:12:22.591Z,22.40
2019-05-25T15:14:51.664Z,22.40
2019-05-25T15:17:20.419Z,22.00
2019-05-25T15:19:49.325Z,21.90
2019-05-25T15:22:18.097Z,22.10
2019-05-25T15:24:46.972Z,21.90
2019-05-25T15:27:15.813Z,21.70
2019-05-25T15:29:44.880Z,21.80
2019-05-25T15:32:19.879Z,21.90
2019-05-25T15:34:46.480Z,21.90
2019-05-25T15:37:15.820Z,21.70
2019-05-25T15:39:44.614Z,21.90
2019-05-25T15:42:13.368Z,22.10
2019-05-25T15:44:42.202Z,22.50
2019-05-25T15:47:11.002Z,21.50
2019-05-25T15:49:39.734Z,20.90
2019-05-25T15:52:08.655Z,21.50
2019-05-25T15:54:37.370Z,21.50
2019-05-25T15:57:06.088Z,21.30
2019-05-25T15:59:35.776Z,21.60
2019-05-25T16:02:05.829Z,23.50
2019-05-25T16:04:35.710Z,25.70
2019-05-25T16:07:04.912Z,26.00
2019-05-25T16:09:34.087Z,26.60
2019-05-25T16:12:03.058Z,27.40
2019-05-25T16:14:31.970Z,29.20
2019-05-25T16:17:00.697Z,29.70
2019-05-25T16:19:29.456Z,30.10
2019-05-25T16:21:59.122Z,29.90
2019-05-25T16:24:28.247Z,31.20
2019-05-25T16:26:56.959Z,32.20
2019-05-25T16:29:25.781Z,32.80
2019-05-25T16:31:54.757Z,33.70
2019-05-25T16:34:23.819Z,33.50
2019-05-25T16:36:52.593Z,33.60
2019-05-25T16:39:24.730Z,30.50
2019-05-25T16:41:53.589Z,31.60
2019-05-25T16:44:22.322Z,32.10
2019-05-25T16:46:52.526Z,32.60
2019-05-25T16:49:21.390Z,33.50
2019-05-25T16:51:50.361Z,34.10
2019-05-25T16:54:19.527Z,34.20
2019-05-25T16:56:48.322Z,33.50
2019-05-25T16:59:17.414Z,34.60
2019-05-25T17:01:48.551Z,34.90
2019-05-25T17:04:16.666Z,34.80
2019-05-25T17:06:45.815Z,34.60
2019-05-25T17:09:14.579Z,34.50
2019-05-25T17:11:44.743Z,34.20
2019-05-25T17:14:13.512Z,33.70
2019-05-25T17:16:42.508Z,33.30
2019-05-25T17:19:11.280Z,33.40
2019-05-25T17:21:40.058Z,33.40
2019-05-25T17:24:08.834Z,32.90
2019-05-25T17:26:37.577Z,31.80
2019-05-25T17:29:06.326Z,30.40
2019-05-25T17:31:35.255Z,29.80
2019-05-25T17:34:04.262Z,28.90
2019-05-25T17:36:33.016Z,28.20
2019-05-25T17:39:01.941Z,27.30
2019-05-25T17:41:30.681Z,27.30
2019-05-25T17:43:59.441Z,27.20
2019-05-25T17:46:28.185Z,27.50
2019-05-25T17:48:56.930Z,27.20
2019-05-25T17:51:25.679Z,26.70
2019-05-25T17:53:55.523Z,25.80
2019-05-25T17:56:24.279Z,25.60
2019-05-25T17:58:53.032Z,25.30
2019-05-25T18:01:21.789Z,25.30
2019-05-25T18:04:05.714Z,25.30
2019-05-25T18:06:21.158Z,24.70
2019-05-25T18:08:49.897Z,24.80
2019-05-25T18:11:19.273Z,24.50
2019-05-25T18:13:48.750Z,24.20
2019-05-25T18:16:19.811Z,24.00
2019-05-25T18:18:48.352Z,23.90
2019-05-25T18:21:17.238Z,23.70
2019-05-25T18:23:46.690Z,23.60
2019-05-25T18:26:15.453Z,23.30
2019-05-25T18:28:44.555Z,23.20
2019-05-25T18:31:13.328Z,22.80
2019-05-25T18:33:42.136Z,22.50
2019-05-25T18:36:11.663Z,22.40
2019-05-25T18:38:40.532Z,22.10
2019-05-25T18:41:09.289Z,21.80
2019-05-25T18:43:38.308Z,21.50
2019-05-25T18:46:07.121Z,21.40
2019-05-25T18:48:35.915Z,21.40
2019-05-25T18:51:04.728Z,21.30
2019-05-25T18:53:33.532Z,21.10
2019-05-25T18:56:02.274Z,20.70
2019-05-25T18:58:31.112Z,20.70
2019-05-25T19:00:59.923Z,20.70
2019-05-25T19:03:28.981Z,20.50
2019-05-25T19:05:57.730Z,20.30
2019-05-25T19:08:26.545Z,20.20
2019-05-25T19:10:55.309Z,20.00
2019-05-25T19:13:24.088Z,20.00
2019-05-25T19:15:53.184Z,19.90
2019-05-25T19:18:22.005Z,19.80
2019-05-25T19:20:50.750Z,19.60
2019-05-25T19:23:19.518Z,19.50
2019-05-25T19:25:48.664Z,19.50
2019-05-25T19:28:17.722Z,19.30
2019-05-25T19:30:46.550Z,19.00
2019-05-25T19:33:15.289Z,18.90
2019-05-25T19:35:44.111Z,18.70
2019-05-25T19:38:12.873Z,18.60
2019-05-25T19:40:41.637Z,18.40
2019-05-25T19:43:10.372Z,18.30
2019-05-25T19:45:39.415Z,17.90
2019-05-25T19:48:08.227Z,17.70
2019-05-25T19:50:37.389Z,17.60
2019-05-25T19:53:07.424Z,17.50
2019-05-25T19:55:36.202Z,17.40
2019-05-25T19:58:05.242Z,17.50
2019-05-25T20:00:34.478Z,17.60
2019-05-25T20:03:03.594Z,17.70
2019-05-25T20:05:32.401Z,17.60
2019-05-25T20:08:01.392Z,17.60
2019-05-25T20:10:30.202Z,17.50
2019-05-25T20:12:58.939Z,17.30
2019-05-25T20:15:27.783Z,17.10
2019-05-25T20:17:56.537Z,17.10
2019-05-25T20:20:25.476Z,17.00
2019-05-25T20:22:54.449Z,16.80
2019-05-25T20:25:23.271Z,16.70
2019-05-25T20:27:52.011Z,16.40
2019-05-25T20:30:21.107Z,16.10
2019-05-25T20:32:49.878Z,16.10
2019-05-25T20:35:31.808Z,16.20
2019-05-25T20:37:49.174Z,16.30
2019-05-25T20:40:18.393Z,16.40
2019-05-25T20:42:47.476Z,16.40
2019-05-25T20:45:16.278Z,16.50
2019-05-25T20:47:45.025Z,16.50
2019-05-25T20:50:14.124Z,16.50
2019-05-25T20:52:42.890Z,16.50
2019-05-25T20:55:12.038Z,16.50
2019-05-25T20:57:41.263Z,16.50
2019-05-25T21:00:10.648Z,16.60
2019-05-25T21:02:39.492Z,16.50
2019-05-25T21:05:08.284Z,16.30
2019-05-25T21:07:37.160Z,16.20
2019-05-25T21:10:06.366Z,16.20
2019-05-25T21:12:35.150Z,16.20
2019-05-25T21:15:04.134Z,16.10
2019-05-25T21:17:33.218Z,16.00
2019-05-25T21:20:02.063Z,16.10
2019-05-25T21:22:30.874Z,16.10
2019-05-25T21:25:05.499Z,15.90
2019-05-25T21:27:30.420Z,15.90
2019-05-25T21:29:59.149Z,15.90
2019-05-25T21:32:27.923Z,15.80
2019-05-25T21:34:56.633Z,15.80
2019-05-25T21:37:25.470Z,15.70
2019-05-25T21:39:54.244Z,15.70
2019-05-25T21:42:23.780Z,15.60
2019-05-25T21:44:52.532Z,15.60
2019-05-25T21:47:21.277Z,15.50
2019-05-25T21:49:50.355Z,15.50
2019-05-25T21:52:19.094Z,15.40
2019-05-25T21:54:47.857Z,15.30
2019-05-25T21:57:16.617Z,15.10
2019-05-25T21:59:45.409Z,15.10
2019-05-25T22:02:15.848Z,15.00
2019-05-25T22:04:44.951Z,15.00
2019-05-25T22:07:13.678Z,14.90
2019-05-25T22:09:42.763Z,14.70
2019-05-25T22:12:11.528Z,14.70
2019-05-25T22:14:40.309Z,14.70
2019-05-25T22:17:09.100Z,14.70
2019-05-25T22:19:37.913Z,14.60
2019-05-25T22:22:06.645Z,14.70
2019-05-25T22:24:35.369Z,14.80
2019-05-25T22:27:04.397Z,14.80
2019-05-25T22:29:33.146Z,14.70
2019-05-25T22:32:01.898Z,14.80
2019-05-25T22:34:30.722Z,14.70
2019-05-25T22:36:59.695Z,14.70
2019-05-25T22:39:28.450Z,14.50
2019-05-25T22:41:57.210Z,14.50
2019-05-25T22:44:26.195Z,14.40
2019-05-25T22:46:55.550Z,14.40
2019-05-25T22:49:24.289Z,14.40
2019-05-25T22:51:53.114Z,14.40
2019-05-25T22:54:21.834Z,14.30
2019-05-25T22:56:50.638Z,14.30
2019-05-25T22:59:19.394Z,14.30
2019-05-25T23:01:48.142Z,14.10
2019-05-25T23:04:16.916Z,13.90
2019-05-25T23:06:56.994Z,13.90
2019-05-25T23:09:16.179Z,13.90
2019-05-25T23:11:44.918Z,13.90
2019-05-25T23:14:14.006Z,13.80
2019-05-25T23:16:42.754Z,13.90
2019-05-25T23:19:11.614Z,14.00
2019-05-25T23:21:40.378Z,13.80
2019-05-25T23:24:09.249Z,13.70
2019-05-25T23:26:37.978Z,13.70
2019-05-25T23:29:07.122Z,13.80
2019-05-25T23:31:36.077Z,13.90
2019-05-25T23:34:04.950Z,13.90
2019-05-25T23:36:34.090Z,13.80
2019-05-25T23:39:03.129Z,13.70
2019-05-25T23:41:31.886Z,13.50
2019-05-25T23:44:00.612Z,13.50
2019-05-25T23:46:29.432Z,13.50
2019-05-25T23:48:58.207Z,13.40
2019-05-25T23:51:27.040Z,13.40
2019-05-25T23:53:56.096Z,13.40
2019-05-25T23:56:24.970Z,13.40
2019-05-25T23:58:53.710Z,13.50
